Terminal Aerodrome Forecast
Issued by NWS Twin Cities, MN

Home | Current Version | Previous Version | Text Only | Print | Product List | Glossary Off
Versions: 1 2 3 4 5 6 7 8 9 10 11 12 13 14 15 16 17 18 19 20 21 22 23

232
FTUS43 KMPX 220853 AAB
TAFEAU
TAF AMD
KEAU 220853Z 2209/2306 VRB04KT 6SM BR SKC
     FM221000 08004KT 3SM BR SCT003
      TEMPO 2210/2212 1/4SM FG VV002
     FM221200 01005KT P6SM BKN007
     FM221800 24005KT P6SM BKN020 OVC050
     FM222100 31010KT P6SM SCT110=

USA.gov is the U.S. government's official web portal to all federal, state and local government web resources and services.